sensor_id;sensor_type;location;lat;lon;timestamp;P1;durP1;ratioP1;P2;durP2;ratioP2
58414;SDS011;44210;42.706;18.344;2023-01-29T00:01:17;4.47;;;3.65;;
58414;SDS011;44210;42.706;18.344;2023-01-29T00:03:43;5.22;;;4.32;;
58414;SDS011;44210;42.706;18.344;2023-01-29T00:06:09;5.40;;;3.67;;
58414;SDS011;44210;42.706;18.344;2023-01-29T00:08:36;5.13;;;3.70;;
58414;SDS011;44210;42.706;18.344;2023-01-29T00:11:03;4.88;;;4.03;;
58414;SDS011;44210;42.706;18.344;2023-01-29T00:13:29;3.97;;;2.92;;
58414;SDS011;44210;42.706;18.344;2023-01-29T00:15:56;4.32;;;3.38;;
58414;SDS011;44210;42.706;18.344;2023-01-29T00:18:22;4.30;;;3.30;;
58414;SDS011;44210;42.706;18.344;2023-01-29T00:20:49;4.07;;;3.05;;
58414;SDS011;44210;42.706;18.344;2023-01-29T00:23:15;4.75;;;2.67;;
58414;SDS011;44210;42.706;18.344;2023-01-29T00:25:42;5.13;;;3.50;;
58414;SDS011;44210;42.706;18.344;2023-01-29T00:28:08;4.80;;;2.75;;
58414;SDS011;44210;42.706;18.344;2023-01-29T00:30:35;4.65;;;3.20;;
58414;SDS011;44210;42.706;18.344;2023-01-29T00:33:01;3.92;;;2.65;;
58414;SDS011;44210;42.706;18.344;2023-01-29T00:35:27;5.18;;;3.92;;
58414;SDS011;44210;42.706;18.344;2023-01-29T00:37:54;4.88;;;3.53;;
58414;SDS011;44210;42.706;18.344;2023-01-29T00:40:20;6.47;;;3.60;;
58414;SDS011;44210;42.706;18.344;2023-01-29T00:42:47;6.53;;;4.30;;
58414;SDS011;44210;42.706;18.344;2023-01-29T00:45:32;5.55;;;3.67;;
58414;SDS011;44210;42.706;18.344;2023-01-29T00:48:00;5.78;;;4.03;;
58414;SDS011;44210;42.706;18.344;2023-01-29T00:50:27;5.15;;;3.50;;
58414;SDS011;44210;42.706;18.344;2023-01-29T00:52:53;5.85;;;3.60;;
58414;SDS011;44210;42.706;18.344;2023-01-29T00:55:19;7.00;;;4.40;;
58414;SDS011;44210;42.706;18.344;2023-01-29T00:57:45;5.45;;;3.50;;
58414;SDS011;44210;42.706;18.344;2023-01-29T01:00:13;6.75;;;4.05;;
58414;SDS011;44210;42.706;18.344;2023-01-29T01:02:39;5.30;;;3.45;;
58414;SDS011;44210;42.706;18.344;2023-01-29T01:05:24;4.13;;;2.97;;
58414;SDS011;44210;42.706;18.344;2023-01-29T01:07:51;5.18;;;3.50;;
58414;SDS011;44210;42.706;18.344;2023-01-29T01:10:28;5.20;;;2.97;;
58414;SDS011;44210;42.706;18.344;2023-01-29T01:12:59;6.10;;;4.00;;
58414;SDS011;44210;42.706;18.344;2023-01-29T01:15:43;4.75;;;3.45;;
58414;SDS011;44210;42.706;18.344;2023-01-29T01:18:10;5.68;;;3.30;;
58414;SDS011;44210;42.706;18.344;2023-01-29T01:20:39;5.47;;;3.80;;
58414;SDS011;44210;42.706;18.344;2023-01-29T01:23:05;3.50;;;2.70;;
58414;SDS011;44210;42.706;18.344;2023-01-29T01:25:31;4.15;;;3.15;;
58414;SDS011;44210;42.706;18.344;2023-01-29T01:27:58;4.40;;;3.03;;
58414;SDS011;44210;42.706;18.344;2023-01-29T01:30:24;3.45;;;2.50;;
58414;SDS011;44210;42.706;18.344;2023-01-29T01:32:50;4.60;;;3.28;;
58414;SDS011;44210;42.706;18.344;2023-01-29T01:35:16;3.92;;;3.05;;
58414;SDS011;44210;42.706;18.344;2023-01-29T01:37:42;3.33;;;3.00;;
58414;SDS011;44210;42.706;18.344;2023-01-29T01:40:13;4.00;;;3.00;;
58414;SDS011;44210;42.706;18.344;2023-01-29T01:42:42;4.13;;;3.05;;
58414;SDS011;44210;42.706;18.344;2023-01-29T01:45:16;4.13;;;3.10;;
58414;SDS011;44210;42.706;18.344;2023-01-29T01:47:45;4.00;;;2.90;;
58414;SDS011;44210;42.706;18.344;2023-01-29T01:52:59;4.63;;;3.22;;
58414;SDS011;44210;42.706;18.344;2023-01-29T01:55:26;4.15;;;2.92;;
58414;SDS011;44210;42.706;18.344;2023-01-29T01:57:56;3.92;;;3.13;;
58414;SDS011;44210;42.706;18.344;2023-01-29T02:00:25;6.90;;;3.80;;
58414;SDS011;44210;42.706;18.344;2023-01-29T02:02:51;3.92;;;2.92;;
58414;SDS011;44210;42.706;18.344;2023-01-29T02:05:38;5.47;;;3.53;;
58414;SDS011;44210;42.706;18.344;2023-01-29T02:08:45;4.25;;;3.00;;
58414;SDS011;44210;42.706;18.344;2023-01-29T02:11:27;5.15;;;3.28;;
58414;SDS011;44210;42.706;18.344;2023-01-29T02:13:55;4.10;;;3.03;;
58414;SDS011;44210;42.706;18.344;2023-01-29T02:16:21;4.63;;;3.50;;
58414;SDS011;44210;42.706;18.344;2023-01-29T02:18:48;3.70;;;2.97;;
58414;SDS011;44210;42.706;18.344;2023-01-29T02:24:03;5.07;;;3.50;;
58414;SDS011;44210;42.706;18.344;2023-01-29T02:26:37;4.70;;;3.60;;
58414;SDS011;44210;42.706;18.344;2023-01-29T02:34:51;6.47;;;3.45;;
58414;SDS011;44210;42.706;18.344;2023-01-29T02:37:38;5.97;;;3.13;;
58414;SDS011;44210;42.706;18.344;2023-01-29T02:40:18;3.95;;;3.10;;
58414;SDS011;44210;42.706;18.344;2023-01-29T02:45:15;4.22;;;3.00;;
58414;SDS011;44210;42.706;18.344;2023-01-29T02:47:53;4.40;;;2.78;;
58414;SDS011;44210;42.706;18.344;2023-01-29T02:52:51;5.32;;;3.72;;
58414;SDS011;44210;42.706;18.344;2023-01-29T02:55:32;5.00;;;3.40;;
58414;SDS011;44210;42.706;18.344;2023-01-29T02:58:04;4.60;;;3.35;;
58414;SDS011;44210;42.706;18.344;2023-01-29T03:00:34;5.28;;;3.70;;
58414;SDS011;44210;42.706;18.344;2023-01-29T03:03:05;3.63;;;2.80;;
58414;SDS011;44210;42.706;18.344;2023-01-29T03:05:47;4.03;;;2.85;;
58414;SDS011;44210;42.706;18.344;2023-01-29T03:08:15;3.83;;;2.72;;
58414;SDS011;44210;42.706;18.344;2023-01-29T03:11:04;5.40;;;3.40;;
58414;SDS011;44210;42.706;18.344;2023-01-29T03:13:37;4.57;;;3.28;;
58414;SDS011;44210;42.706;18.344;2023-01-29T03:16:07;4.20;;;2.65;;
58414;SDS011;44210;42.706;18.344;2023-01-29T03:18:36;3.63;;;2.67;;
58414;SDS011;44210;42.706;18.344;2023-01-29T03:21:07;3.83;;;2.92;;
58414;SDS011;44210;42.706;18.344;2023-01-29T03:23:54;4.13;;;3.08;;
58414;SDS011;44210;42.706;18.344;2023-01-29T03:26:40;3.70;;;2.85;;
58414;SDS011;44210;42.706;18.344;2023-01-29T03:29:27;5.63;;;3.33;;
58414;SDS011;44210;42.706;18.344;2023-01-29T03:32:12;3.78;;;2.72;;
58414;SDS011;44210;42.706;18.344;2023-01-29T03:34:40;3.72;;;2.60;;
58414;SDS011;44210;42.706;18.344;2023-01-29T03:37:19;3.33;;;2.65;;
58414;SDS011;44210;42.706;18.344;2023-01-29T03:39:46;3.45;;;2.38;;
58414;SDS011;44210;42.706;18.344;2023-01-29T03:47:25;3.58;;;2.55;;
58414;SDS011;44210;42.706;18.344;2023-01-29T03:49:56;3.25;;;2.65;;
58414;SDS011;44210;42.706;18.344;2023-01-29T03:52:29;3.53;;;2.73;;
58414;SDS011;44210;42.706;18.344;2023-01-29T03:55:09;4.25;;;2.10;;
58414;SDS011;44210;42.706;18.344;2023-01-29T03:57:41;3.92;;;2.80;;
58414;SDS011;44210;42.706;18.344;2023-01-29T04:02:46;3.38;;;2.42;;
58414;SDS011;44210;42.706;18.344;2023-01-29T04:05:21;5.00;;;3.45;;
58414;SDS011;44210;42.706;18.344;2023-01-29T04:07:51;3.97;;;2.60;;
58414;SDS011;44210;42.706;18.344;2023-01-29T04:10:20;3.25;;;2.50;;
58414;SDS011;44210;42.706;18.344;2023-01-29T04:12:48;3.03;;;2.40;;
58414;SDS011;44210;42.706;18.344;2023-01-29T04:15:16;5.13;;;3.13;;
58414;SDS011;44210;42.706;18.344;2023-01-29T04:17:43;4.97;;;3.20;;
58414;SDS011;44210;42.706;18.344;2023-01-29T04:20:11;2.92;;;2.40;;
58414;SDS011;44210;42.706;18.344;2023-01-29T04:22:38;3.30;;;2.50;;
58414;SDS011;44210;42.706;18.344;2023-01-29T04:25:08;3.67;;;2.55;;
58414;SDS011;44210;42.706;18.344;2023-01-29T04:30:18;3.53;;;2.70;;
58414;SDS011;44210;42.706;18.344;2023-01-29T04:35:30;3.88;;;2.40;;
58414;SDS011;44210;42.706;18.344;2023-01-29T04:43:33;5.43;;;3.40;;
58414;SDS011;44210;42.706;18.344;2023-01-29T04:46:04;4.20;;;2.90;;
58414;SDS011;44210;42.706;18.344;2023-01-29T04:48:56;14.18;;;3.08;;
58414;SDS011;44210;42.706;18.344;2023-01-29T04:51:36;3.95;;;2.50;;
58414;SDS011;44210;42.706;18.344;2023-01-29T04:54:10;3.90;;;2.70;;
58414;SDS011;44210;42.706;18.344;2023-01-29T04:59:14;3.30;;;2.75;;
58414;SDS011;44210;42.706;18.344;2023-01-29T05:01:42;4.32;;;3.15;;
58414;SDS011;44210;42.706;18.344;2023-01-29T05:04:09;3.40;;;2.50;;
58414;SDS011;44210;42.706;18.344;2023-01-29T05:06:36;3.63;;;2.45;;
58414;SDS011;44210;42.706;18.344;2023-01-29T05:09:02;4.18;;;2.55;;
58414;SDS011;44210;42.706;18.344;2023-01-29T05:11:29;2.97;;;2.33;;
58414;SDS011;44210;42.706;18.344;2023-01-29T05:13:55;3.85;;;2.67;;
58414;SDS011;44210;42.706;18.344;2023-01-29T05:16:25;3.72;;;2.75;;
58414;SDS011;44210;42.706;18.344;2023-01-29T05:18:52;3.95;;;3.00;;
58414;SDS011;44210;42.706;18.344;2023-01-29T05:21:18;5.47;;;3.92;;
58414;SDS011;44210;42.706;18.344;2023-01-29T05:24:04;4.10;;;2.60;;
58414;SDS011;44210;42.706;18.344;2023-01-29T05:26:30;3.53;;;2.60;;
58414;SDS011;44210;42.706;18.344;2023-01-29T05:29:16;4.88;;;2.92;;
58414;SDS011;44210;42.706;18.344;2023-01-29T05:31:43;4.00;;;2.67;;
58414;SDS011;44210;42.706;18.344;2023-01-29T05:34:09;3.70;;;2.70;;
58414;SDS011;44210;42.706;18.344;2023-01-29T05:36:35;3.92;;;2.97;;
58414;SDS011;44210;42.706;18.344;2023-01-29T05:39:01;4.40;;;3.00;;
58414;SDS011;44210;42.706;18.344;2023-01-29T05:41:27;3.97;;;2.92;;
58414;SDS011;44210;42.706;18.344;2023-01-29T05:43:53;4.07;;;2.33;;
58414;SDS011;44210;42.706;18.344;2023-01-29T05:46:19;3.85;;;2.53;;
58414;SDS011;44210;42.706;18.344;2023-01-29T05:48:45;5.78;;;2.60;;
58414;SDS011;44210;42.706;18.344;2023-01-29T05:51:11;5.53;;;3.28;;
58414;SDS011;44210;42.706;18.344;2023-01-29T05:53:37;4.50;;;2.60;;
58414;SDS011;44210;42.706;18.344;2023-01-29T05:56:03;2.70;;;2.20;;
58414;SDS011;44210;42.706;18.344;2023-01-29T05:58:30;3.40;;;2.53;;
58414;SDS011;44210;42.706;18.344;2023-01-29T06:00:56;3.00;;;2.00;;
58414;SDS011;44210;42.706;18.344;2023-01-29T06:03:22;4.05;;;2.40;;
58414;SDS011;44210;42.706;18.344;2023-01-29T06:05:48;4.90;;;2.90;;
58414;SDS011;44210;42.706;18.344;2023-01-29T06:08:14;5.35;;;3.13;;
58414;SDS011;44210;42.706;18.344;2023-01-29T06:10:40;9.02;;;5.88;;
58414;SDS011;44210;42.706;18.344;2023-01-29T06:13:06;3.70;;;2.50;;
58414;SDS011;44210;42.706;18.344;2023-01-29T06:15:32;4.03;;;3.35;;
58414;SDS011;44210;42.706;18.344;2023-01-29T06:17:58;3.95;;;3.10;;
58414;SDS011;44210;42.706;18.344;2023-01-29T06:20:24;4.15;;;3.00;;
58414;SDS011;44210;42.706;18.344;2023-01-29T06:22:50;6.07;;;3.80;;
58414;SDS011;44210;42.706;18.344;2023-01-29T06:25:16;6.63;;;3.80;;
58414;SDS011;44210;42.706;18.344;2023-01-29T06:27:42;4.85;;;3.20;;
58414;SDS011;44210;42.706;18.344;2023-01-29T06:30:09;5.03;;;3.00;;
58414;SDS011;44210;42.706;18.344;2023-01-29T06:32:35;4.38;;;2.58;;
58414;SDS011;44210;42.706;18.344;2023-01-29T06:35:02;3.30;;;2.25;;
58414;SDS011;44210;42.706;18.344;2023-01-29T06:37:28;5.45;;;2.50;;
58414;SDS011;44210;42.706;18.344;2023-01-29T06:39:54;5.57;;;2.75;;
58414;SDS011;44210;42.706;18.344;2023-01-29T06:42:20;6.88;;;2.88;;
58414;SDS011;44210;42.706;18.344;2023-01-29T06:44:51;5.47;;;3.03;;
58414;SDS011;44210;42.706;18.344;2023-01-29T06:47:17;3.50;;;2.35;;
58414;SDS011;44210;42.706;18.344;2023-01-29T06:49:43;5.53;;;2.75;;
58414;SDS011;44210;42.706;18.344;2023-01-29T06:52:09;8.10;;;3.30;;
58414;SDS011;44210;42.706;18.344;2023-01-29T06:54:35;7.30;;;3.40;;
58414;SDS011;44210;42.706;18.344;2023-01-29T06:57:01;6.25;;;3.30;;
58414;SDS011;44210;42.706;18.344;2023-01-29T06:59:28;6.18;;;4.07;;
58414;SDS011;44210;42.706;18.344;2023-01-29T07:01:54;6.20;;;3.63;;
58414;SDS011;44210;42.706;18.344;2023-01-29T07:04:20;8.40;;;3.83;;
58414;SDS011;44210;42.706;18.344;2023-01-29T07:06:46;5.40;;;3.42;;
58414;SDS011;44210;42.706;18.344;2023-01-29T07:09:12;4.70;;;2.92;;
58414;SDS011;44210;42.706;18.344;2023-01-29T07:11:39;5.20;;;3.45;;
58414;SDS011;44210;42.706;18.344;2023-01-29T07:14:05;6.78;;;3.33;;
58414;SDS011;44210;42.706;18.344;2023-01-29T07:16:31;3.60;;;2.67;;
58414;SDS011;44210;42.706;18.344;2023-01-29T07:18:58;4.57;;;2.78;;
58414;SDS011;44210;42.706;18.344;2023-01-29T07:21:24;5.25;;;3.33;;
58414;SDS011;44210;42.706;18.344;2023-01-29T07:23:50;8.13;;;3.58;;
58414;SDS011;44210;42.706;18.344;2023-01-29T07:26:16;5.32;;;3.30;;
58414;SDS011;44210;42.706;18.344;2023-01-29T07:28:42;5.35;;;3.10;;
58414;SDS011;44210;42.706;18.344;2023-01-29T07:31:09;3.50;;;2.67;;
58414;SDS011;44210;42.706;18.344;2023-01-29T07:33:36;5.70;;;3.28;;
58414;SDS011;44210;42.706;18.344;2023-01-29T07:36:06;6.93;;;3.35;;
58414;SDS011;44210;42.706;18.344;2023-01-29T07:38:32;5.20;;;3.22;;
58414;SDS011;44210;42.706;18.344;2023-01-29T07:40:58;5.35;;;3.55;;
58414;SDS011;44210;42.706;18.344;2023-01-29T07:43:24;5.82;;;3.85;;
58414;SDS011;44210;42.706;18.344;2023-01-29T07:45:50;7.78;;;4.40;;
58414;SDS011;44210;42.706;18.344;2023-01-29T07:48:16;7.78;;;4.28;;
58414;SDS011;44210;42.706;18.344;2023-01-29T07:50:42;6.80;;;4.80;;
58414;SDS011;44210;42.706;18.344;2023-01-29T07:53:14;5.68;;;3.60;;
58414;SDS011;44210;42.706;18.344;2023-01-29T07:55:43;11.07;;;5.47;;
58414;SDS011;44210;42.706;18.344;2023-01-29T07:58:09;6.60;;;4.40;;
58414;SDS011;44210;42.706;18.344;2023-01-29T08:00:36;6.60;;;4.60;;
58414;SDS011;44210;42.706;18.344;2023-01-29T08:03:03;4.82;;;2.92;;
58414;SDS011;44210;42.706;18.344;2023-01-29T08:05:30;4.65;;;3.28;;
58414;SDS011;44210;42.706;18.344;2023-01-29T08:07:56;4.65;;;3.42;;
58414;SDS011;44210;42.706;18.344;2023-01-29T08:10:22;3.72;;;2.70;;
58414;SDS011;44210;42.706;18.344;2023-01-29T08:12:52;5.10;;;3.53;;
58414;SDS011;44210;42.706;18.344;2023-01-29T08:15:18;4.35;;;3.45;;
58414;SDS011;44210;42.706;18.344;2023-01-29T08:17:45;3.38;;;2.58;;
58414;SDS011;44210;42.706;18.344;2023-01-29T08:20:11;5.00;;;3.75;;
58414;SDS011;44210;42.706;18.344;2023-01-29T08:22:37;3.78;;;3.00;;
58414;SDS011;44210;42.706;18.344;2023-01-29T08:25:03;6.32;;;3.72;;
58414;SDS011;44210;42.706;18.344;2023-01-29T08:27:29;5.75;;;3.72;;
58414;SDS011;44210;42.706;18.344;2023-01-29T08:29:55;6.32;;;4.10;;
58414;SDS011;44210;42.706;18.344;2023-01-29T08:32:21;7.03;;;4.35;;
58414;SDS011;44210;42.706;18.344;2023-01-29T08:34:47;6.45;;;3.78;;
58414;SDS011;44210;42.706;18.344;2023-01-29T08:37:13;4.63;;;3.10;;
58414;SDS011;44210;42.706;18.344;2023-01-29T08:39:39;6.15;;;3.45;;
58414;SDS011;44210;42.706;18.344;2023-01-29T08:42:05;5.20;;;3.65;;
58414;SDS011;44210;42.706;18.344;2023-01-29T08:44:31;7.30;;;4.07;;
58414;SDS011;44210;42.706;18.344;2023-01-29T08:46:57;3.53;;;2.60;;
58414;SDS011;44210;42.706;18.344;2023-01-29T08:49:23;4.00;;;2.78;;
58414;SDS011;44210;42.706;18.344;2023-01-29T08:51:49;4.82;;;3.25;;
58414;SDS011;44210;42.706;18.344;2023-01-29T08:54:15;4.43;;;3.10;;
58414;SDS011;44210;42.706;18.344;2023-01-29T08:56:42;3.25;;;2.50;;
58414;SDS011;44210;42.706;18.344;2023-01-29T08:59:08;8.88;;;5.90;;
58414;SDS011;44210;42.706;18.344;2023-01-29T09:01:34;4.95;;;3.20;;
58414;SDS011;44210;42.706;18.344;2023-01-29T09:04:02;8.77;;;5.60;;
58414;SDS011;44210;42.706;18.344;2023-01-29T09:06:28;6.38;;;4.57;;
58414;SDS011;44210;42.706;18.344;2023-01-29T09:08:54;7.53;;;5.15;;
58414;SDS011;44210;42.706;18.344;2023-01-29T09:11:20;11.63;;;8.40;;
58414;SDS011;44210;42.706;18.344;2023-01-29T09:13:46;7.88;;;5.97;;
58414;SDS011;44210;42.706;18.344;2023-01-29T09:16:12;8.13;;;4.53;;
58414;SDS011;44210;42.706;18.344;2023-01-29T09:18:38;40.58;;;24.13;;
58414;SDS011;44210;42.706;18.344;2023-01-29T09:21:04;26.33;;;13.52;;
58414;SDS011;44210;42.706;18.344;2023-01-29T09:23:31;10.75;;;8.25;;
58414;SDS011;44210;42.706;18.344;2023-01-29T09:25:57;6.75;;;4.80;;
58414;SDS011;44210;42.706;18.344;2023-01-29T09:28:23;13.43;;;10.38;;
58414;SDS011;44210;42.706;18.344;2023-01-29T09:30:49;12.88;;;10.65;;
58414;SDS011;44210;42.706;18.344;2023-01-29T09:33:15;6.95;;;5.05;;
58414;SDS011;44210;42.706;18.344;2023-01-29T09:35:41;7.25;;;5.93;;
58414;SDS011;44210;42.706;18.344;2023-01-29T09:38:08;7.07;;;5.53;;
58414;SDS011;44210;42.706;18.344;2023-01-29T09:43:05;5.70;;;4.65;;
58414;SDS011;44210;42.706;18.344;2023-01-29T09:45:32;8.68;;;6.68;;
58414;SDS011;44210;42.706;18.344;2023-01-29T09:47:59;5.18;;;4.13;;
58414;SDS011;44210;42.706;18.344;2023-01-29T09:50:31;4.97;;;3.70;;
58414;SDS011;44210;42.706;18.344;2023-01-29T09:53:00;7.30;;;6.18;;
58414;SDS011;44210;42.706;18.344;2023-01-29T09:55:28;8.18;;;7.35;;
58414;SDS011;44210;42.706;18.344;2023-01-29T10:05:57;11.20;;;8.50;;
58414;SDS011;44210;42.706;18.344;2023-01-29T10:08:41;8.93;;;7.00;;
58414;SDS011;44210;42.706;18.344;2023-01-29T10:13:51;7.90;;;5.80;;
58414;SDS011;44210;42.706;18.344;2023-01-29T10:16:37;10.80;;;6.85;;
58414;SDS011;44210;42.706;18.344;2023-01-29T10:21:59;7.35;;;5.93;;
58414;SDS011;44210;42.706;18.344;2023-01-29T10:26:55;3.67;;;2.97;;
58414;SDS011;44210;42.706;18.344;2023-01-29T10:29:22;11.30;;;8.82;;
58414;SDS011;44210;42.706;18.344;2023-01-29T10:31:50;15.50;;;12.20;;
58414;SDS011;44210;42.706;18.344;2023-01-29T10:34:22;10.73;;;8.30;;
58414;SDS011;44210;42.706;18.344;2023-01-29T10:36:50;12.15;;;8.93;;
58414;SDS011;44210;42.706;18.344;2023-01-29T10:39:22;9.45;;;6.90;;
58414;SDS011;44210;42.706;18.344;2023-01-29T10:42:12;6.30;;;4.93;;
58414;SDS011;44210;42.706;18.344;2023-01-29T10:49:57;8.73;;;6.95;;
58414;SDS011;44210;42.706;18.344;2023-01-29T10:58:05;4.05;;;3.33;;
58414;SDS011;44210;42.706;18.344;2023-01-29T11:00:27;5.32;;;4.50;;
58414;SDS011;44210;42.706;18.344;2023-01-29T11:02:55;6.05;;;4.65;;
58414;SDS011;44210;42.706;18.344;2023-01-29T11:05:24;6.60;;;5.22;;
58414;SDS011;44210;42.706;18.344;2023-01-29T11:07:59;8.50;;;5.88;;
58414;SDS011;44210;42.706;18.344;2023-01-29T11:10:27;7.88;;;5.45;;
58414;SDS011;44210;42.706;18.344;2023-01-29T11:12:55;8.70;;;6.75;;
58414;SDS011;44210;42.706;18.344;2023-01-29T11:15:23;6.07;;;4.40;;
58414;SDS011;44210;42.706;18.344;2023-01-29T11:20:37;5.18;;;4.68;;
58414;SDS011;44210;42.706;18.344;2023-01-29T11:23:04;5.15;;;4.22;;
58414;SDS011;44210;42.706;18.344;2023-01-29T11:25:30;5.25;;;4.30;;
58414;SDS011;44210;42.706;18.344;2023-01-29T11:28:00;4.15;;;3.47;;
58414;SDS011;44210;42.706;18.344;2023-01-29T11:30:33;5.78;;;4.00;;
58414;SDS011;44210;42.706;18.344;2023-01-29T11:35:44;7.25;;;5.70;;
58414;SDS011;44210;42.706;18.344;2023-01-29T11:38:23;4.72;;;3.50;;
58414;SDS011;44210;42.706;18.344;2023-01-29T11:40:50;3.97;;;3.58;;
58414;SDS011;44210;42.706;18.344;2023-01-29T11:45:42;4.53;;;4.10;;
58414;SDS011;44210;42.706;18.344;2023-01-29T11:48:12;6.20;;;5.40;;
58414;SDS011;44210;42.706;18.344;2023-01-29T11:50:40;5.50;;;4.45;;
58414;SDS011;44210;42.706;18.344;2023-01-29T11:53:06;4.72;;;4.00;;
58414;SDS011;44210;42.706;18.344;2023-01-29T11:55:43;4.40;;;3.97;;
58414;SDS011;44210;42.706;18.344;2023-01-29T12:00:37;4.40;;;3.42;;
58414;SDS011;44210;42.706;18.344;2023-01-29T12:03:20;5.78;;;4.45;;
58414;SDS011;44210;42.706;18.344;2023-01-29T12:05:55;9.75;;;7.53;;
58414;SDS011;44210;42.706;18.344;2023-01-29T12:08:22;4.78;;;4.22;;
58414;SDS011;44210;42.706;18.344;2023-01-29T12:10:48;4.47;;;3.78;;
58414;SDS011;44210;42.706;18.344;2023-01-29T12:13:27;8.63;;;6.57;;
58414;SDS011;44210;42.706;18.344;2023-01-29T12:18:35;8.93;;;5.43;;
58414;SDS011;44210;42.706;18.344;2023-01-29T12:21:03;4.50;;;3.90;;
58414;SDS011;44210;42.706;18.344;2023-01-29T12:26:14;4.88;;;4.00;;
58414;SDS011;44210;42.706;18.344;2023-01-29T12:28:54;5.38;;;3.95;;
58414;SDS011;44210;42.706;18.344;2023-01-29T12:31:25;6.63;;;5.00;;
58414;SDS011;44210;42.706;18.344;2023-01-29T12:36:42;5.93;;;4.35;;
58414;SDS011;44210;42.706;18.344;2023-01-29T12:39:17;4.07;;;3.67;;
58414;SDS011;44210;42.706;18.344;2023-01-29T12:42:18;3.33;;;3.03;;
58414;SDS011;44210;42.706;18.344;2023-01-29T12:44:37;4.43;;;3.78;;
58414;SDS011;44210;42.706;18.344;2023-01-29T12:47:06;4.95;;;3.72;;
58414;SDS011;44210;42.706;18.344;2023-01-29T12:49:37;4.28;;;3.88;;
58414;SDS011;44210;42.706;18.344;2023-01-29T12:55:09;4.28;;;3.67;;
58414;SDS011;44210;42.706;18.344;2023-01-29T13:00:08;5.05;;;3.58;;
58414;SDS011;44210;42.706;18.344;2023-01-29T13:02:58;14.85;;;4.57;;
58414;SDS011;44210;42.706;18.344;2023-01-29T13:05:26;5.38;;;3.22;;
58414;SDS011;44210;42.706;18.344;2023-01-29T13:07:57;4.03;;;2.83;;
58414;SDS011;44210;42.706;18.344;2023-01-29T13:10:25;3.67;;;3.35;;
58414;SDS011;44210;42.706;18.344;2023-01-29T13:12:57;4.97;;;3.28;;
58414;SDS011;44210;42.706;18.344;2023-01-29T13:15:29;3.70;;;3.10;;
58414;SDS011;44210;42.706;18.344;2023-01-29T13:17:57;3.08;;;2.78;;
58414;SDS011;44210;42.706;18.344;2023-01-29T13:20:30;20.52;;;3.13;;
58414;SDS011;44210;42.706;18.344;2023-01-29T13:22:58;7.15;;;2.70;;
58414;SDS011;44210;42.706;18.344;2023-01-29T13:25:28;3.63;;;2.95;;
58414;SDS011;44210;42.706;18.344;2023-01-29T13:27:54;3.33;;;2.70;;
58414;SDS011;44210;42.706;18.344;2023-01-29T13:32:53;2.67;;;2.47;;
58414;SDS011;44210;42.706;18.344;2023-01-29T13:35:20;5.03;;;3.28;;
58414;SDS011;44210;42.706;18.344;2023-01-29T13:37:51;2.75;;;2.40;;
58414;SDS011;44210;42.706;18.344;2023-01-29T13:40:27;8.68;;;6.70;;
58414;SDS011;44210;42.706;18.344;2023-01-29T13:42:55;4.65;;;3.40;;
58414;SDS011;44210;42.706;18.344;2023-01-29T13:45:27;3.03;;;2.40;;
58414;SDS011;44210;42.706;18.344;2023-01-29T13:47:54;3.00;;;2.53;;
58414;SDS011;44210;42.706;18.344;2023-01-29T13:50:36;4.72;;;3.65;;
58414;SDS011;44210;42.706;18.344;2023-01-29T13:53:03;3.40;;;2.70;;
58414;SDS011;44210;42.706;18.344;2023-01-29T13:55:33;3.20;;;2.90;;
58414;SDS011;44210;42.706;18.344;2023-01-29T13:58:03;4.70;;;4.18;;
58414;SDS011;44210;42.706;18.344;2023-01-29T14:07:56;3.55;;;2.47;;
58414;SDS011;44210;42.706;18.344;2023-01-29T14:10:24;3.78;;;2.60;;
58414;SDS011;44210;42.706;18.344;2023-01-29T14:12:51;4.20;;;2.72;;
58414;SDS011;44210;42.706;18.344;2023-01-29T14:17:59;8.10;;;3.30;;
58414;SDS011;44210;42.706;18.344;2023-01-29T14:20:37;4.93;;;2.80;;
58414;SDS011;44210;42.706;18.344;2023-01-29T14:23:04;4.03;;;2.80;;
58414;SDS011;44210;42.706;18.344;2023-01-29T14:25:32;3.53;;;2.72;;
58414;SDS011;44210;42.706;18.344;2023-01-29T14:27:59;3.00;;;2.45;;
58414;SDS011;44210;42.706;18.344;2023-01-29T14:30:27;4.15;;;3.30;;
58414;SDS011;44210;42.706;18.344;2023-01-29T14:32:54;3.72;;;3.05;;
58414;SDS011;44210;42.706;18.344;2023-01-29T14:35:21;3.70;;;2.97;;
58414;SDS011;44210;42.706;18.344;2023-01-29T14:37:52;3.10;;;2.80;;
58414;SDS011;44210;42.706;18.344;2023-01-29T14:40:21;5.38;;;4.57;;
58414;SDS011;44210;42.706;18.344;2023-01-29T14:43:01;4.03;;;3.33;;
58414;SDS011;44210;42.706;18.344;2023-01-29T14:45:33;4.35;;;3.17;;
58414;SDS011;44210;42.706;18.344;2023-01-29T14:48:01;5.30;;;3.88;;
58414;SDS011;44210;42.706;18.344;2023-01-29T14:52:53;5.38;;;3.90;;
58414;SDS011;44210;42.706;18.344;2023-01-29T14:55:30;4.97;;;3.63;;
58414;SDS011;44210;42.706;18.344;2023-01-29T14:58:00;4.93;;;3.85;;
58414;SDS011;44210;42.706;18.344;2023-01-29T15:00:32;3.70;;;3.20;;
58414;SDS011;44210;42.706;18.344;2023-01-29T15:02:59;5.05;;;4.15;;
58414;SDS011;44210;42.706;18.344;2023-01-29T15:05:27;5.18;;;4.00;;
58414;SDS011;44210;42.706;18.344;2023-01-29T15:07:54;5.70;;;3.72;;
58414;SDS011;44210;42.706;18.344;2023-01-29T15:12:49;8.10;;;5.40;;
58414;SDS011;44210;42.706;18.344;2023-01-29T15:15:24;6.13;;;4.20;;
58414;SDS011;44210;42.706;18.344;2023-01-29T15:20:36;8.27;;;5.53;;
58414;SDS011;44210;42.706;18.344;2023-01-29T15:23:02;8.13;;;6.00;;
58414;SDS011;44210;42.706;18.344;2023-01-29T15:25:51;5.68;;;4.00;;
58414;SDS011;44210;42.706;18.344;2023-01-29T15:28:16;5.50;;;4.13;;
58414;SDS011;44210;42.706;18.344;2023-01-29T15:30:42;9.10;;;6.15;;
58414;SDS011;44210;42.706;18.344;2023-01-29T15:33:09;9.63;;;6.63;;
58414;SDS011;44210;42.706;18.344;2023-01-29T15:35:36;8.63;;;6.63;;
58414;SDS011;44210;42.706;18.344;2023-01-29T15:38:05;7.75;;;6.03;;
58414;SDS011;44210;42.706;18.344;2023-01-29T15:40:32;6.95;;;5.20;;
58414;SDS011;44210;42.706;18.344;2023-01-29T15:42:58;9.63;;;7.97;;
58414;SDS011;44210;42.706;18.344;2023-01-29T15:45:28;7.68;;;6.10;;
58414;SDS011;44210;42.706;18.344;2023-01-29T15:47:57;7.93;;;6.43;;
58414;SDS011;44210;42.706;18.344;2023-01-29T15:50:24;7.63;;;5.93;;
58414;SDS011;44210;42.706;18.344;2023-01-29T15:52:50;7.05;;;6.05;;
58414;SDS011;44210;42.706;18.344;2023-01-29T15:55:18;11.13;;;7.40;;
58414;SDS011;44210;42.706;18.344;2023-01-29T15:57:45;12.05;;;8.27;;
58414;SDS011;44210;42.706;18.344;2023-01-29T16:00:21;9.55;;;7.05;;
58414;SDS011;44210;42.706;18.344;2023-01-29T16:02:48;8.82;;;6.20;;
58414;SDS011;44210;42.706;18.344;2023-01-29T16:05:15;11.57;;;7.68;;
58414;SDS011;44210;42.706;18.344;2023-01-29T16:07:43;10.07;;;7.18;;
58414;SDS011;44210;42.706;18.344;2023-01-29T16:10:16;9.38;;;5.78;;
58414;SDS011;44210;42.706;18.344;2023-01-29T16:12:44;10.77;;;6.18;;
58414;SDS011;44210;42.706;18.344;2023-01-29T16:15:17;9.93;;;6.78;;
58414;SDS011;44210;42.706;18.344;2023-01-29T16:17:45;9.05;;;7.03;;
58414;SDS011;44210;42.706;18.344;2023-01-29T16:20:33;10.30;;;7.65;;
58414;SDS011;44210;42.706;18.344;2023-01-29T16:22:57;13.95;;;9.27;;
58414;SDS011;44210;42.706;18.344;2023-01-29T16:25:24;13.40;;;7.78;;
58414;SDS011;44210;42.706;18.344;2023-01-29T16:27:50;15.98;;;10.52;;
58414;SDS011;44210;42.706;18.344;2023-01-29T16:30:16;14.20;;;10.05;;
58414;SDS011;44210;42.706;18.344;2023-01-29T16:32:43;10.73;;;8.35;;
58414;SDS011;44210;42.706;18.344;2023-01-29T16:35:13;10.32;;;7.90;;
58414;SDS011;44210;42.706;18.344;2023-01-29T16:37:40;9.48;;;7.90;;